ADDS METAR Data INFO
IDs: Format: Raw Decoded Include TAF

Data at: 1210 UTC 21 Jun 2018

KINT 211154Z 28006KT 10SM CLR 26/19 A2987 RMK AO2 SLP100 70026 T02560194 10256 20217 53009
KINT 211054Z 26003KT 10SM CLR 24/20 A2985 RMK AO2 SLP095 T02390200
KINT 210954Z AUTO 00000KT 10SM CLR 23/21 A2984 RMK AO2 SLP091 T02330206
KINT 210854Z AUTO 00000KT 10SM CLR 23/21 A2984 RMK AO2 SLP091 T02280206 56011
KINT 210754Z AUTO 00000KT 10SM CLR 24/21 A2984 RMK AO2 SLP092 T02390206
KINT 210654Z AUTO 25004KT 10SM CLR 24/21 A2986 RMK AO2 SLP096 T02440206
KINT 210554Z AUTO 00000KT 10SM CLR 24/21 A2987 RMK AO2 SLP102 T02390211 10311 20239 58004
KINT 210454Z AUTO 00000KT 10SM CLR 26/21 A2989 RMK AO2 SLP106 T02610206 403390233
KINT 210354Z AUTO 26004KT 10SM CLR 27/21 A2989 RMK AO2 SLP106 T02670206
KINT 210254Z AUTO VRB05KT 10SM OVC065 28/21 A2989 RMK AO2 SLP106 T02780211 53013
KINT 210154Z AUTO 00000KT 10SM FEW080 BKN120 29/21 A2987 RMK AO2 LTG DSNT E AND SW SLP101 T02890211
KINT 210054Z 23003KT 10SM FEW065 SCT120 30/21 A2985 RMK AO2 LTG DSNT E AND SE SLP093 T03000206
KINT 202354Z 32004KT 10SM CLR 31/19 A2985 RMK AO2 SLP093 60026 T03110194 10339 20239 55000
KINT 202254Z 29004KT 10SM CLR 32/20 A2984 RMK AO2 SLP092 T03220200
KINT 202154Z VRB06KT 10SM CLR 32/19 A2983 RMK AO2 SLP088 T03220194
KINT 202054Z 25004KT 10SM CLR 32/20 A2985 RMK AO2 SLP093 60026 T03220200 58019
KINT 201954Z 00000KT 10SM FEW085 31/22 A2987 RMK AO2 RAB04E37 SLP103 P0026 T03060222
KINT 201932Z 00000KT 3SM -RA SCT036 BKN060 OVC090 25/22 A2989 RMK AO2 RAB04 P0026 T02500222
KINT 201912Z 31016G22KT 1 3/4SM +RA BKN055 BKN070 26/21 A2991 RMK AO2 RAB04 PRESRR P0008 T02610211
KINT 201854Z 30008KT 280V340 10SM SCT055 BKN085 32/19 A2988 RMK AO2 SLP106 T03220189
KINT 201754Z 10SM CLR 32/19 A2990 RMK AO2 SLP112 T03220189 10339 20272 58013
KINT 201654Z 31007KT 10SM FEW046 SCT070 33/21 A2992 RMK AO2 SLP118 T03280206
KINT 201554Z 10SM FEW080 32/21 A2994 RMK AO2 SLP123 T03170206
KINT 201454Z 33007KT 10SM CLR 31/20 A2994 RMK AO2 SLP125 T03110200 58001
KINT 201354Z VRB03KT 10SM CLR 30/21 A2995 RMK AO2 SLP128 T03000206
KINT 201254Z 31005KT 10SM CLR 29/20 A2995 RMK AO2 SLP128 T02890200
KINT 201154Z 00000KT 10SM CLR 27/21 A2995 RMK AO2 SLP127 T02670211 10267 20233 53005
KINT 201054Z 00000KT 10SM CLR 24/21 A2994 RMK AO2 SLP124 T02390211
KINT 200954Z AUTO 00000KT 10SM CLR 24/21 A2993 RMK AO2 SLP122 T02390206
KINT 200854Z AUTO 00000KT 10SM CLR 25/21 A2993 RMK AO2 SLP122 T02500211 55004
KINT 200754Z AUTO 00000KT 10SM CLR 24/21 A2993 RMK AO2 SLP120 T02390211
KINT 200654Z AUTO 01003KT 10SM CLR 25/21 A2993 RMK AO2 SLP120 T02500206
KINT 200554Z AUTO 02004KT 10SM CLR 26/21 A2995 RMK AO2 SLP125 T02610211 10317 20256 50004
KINT 200454Z AUTO 32005KT 10SM CLR 27/21 A2995 RMK AO2 SLP128 T02670211 403500244
KINT 200354Z AUTO 30006KT 10SM CLR 28/21 A2994 RMK AO2 SLP122 T02780206
KINT 200254Z AUTO 28005KT 10SM CLR 29/21 A2993 RMK AO2 SLP121 T02890211 51010
KINT 200154Z AUTO VRB04KT 10SM CLR 29/21 A2992 RMK AO2 SLP118 T02940211
KINT 200054Z 22003KT 10SM CLR 31/21 A2992 RMK AO2 SLP116 T03060211